createdAt,value
2019-05-02T00:00:55.187Z,8.76
2019-05-02T00:01:55.161Z,8.73
2019-05-02T00:02:55.137Z,8.81
2019-05-02T00:03:55.114Z,8.83
2019-05-02T00:04:55.879Z,8.75
2019-05-02T00:05:55.062Z,8.72
2019-05-02T00:06:55.038Z,8.65
2019-05-02T00:07:58.499Z,8.68
2019-05-02T00:08:54.989Z,8.60
2019-05-02T00:09:54.964Z,8.57
2019-05-02T00:10:54.939Z,8.53
2019-05-02T00:11:58.922Z,8.53
2019-05-02T00:12:54.889Z,8.55
2019-05-02T00:13:54.864Z,8.51
2019-05-02T00:14:56.590Z,8.45
2019-05-02T00:15:54.814Z,8.44
2019-05-02T00:16:54.790Z,8.42
2019-05-02T00:17:56.887Z,8.44
2019-05-02T00:18:54.740Z,8.47
2019-05-02T00:19:54.715Z,8.47
2019-05-02T00:20:57.110Z,8.45
2019-05-02T00:21:54.664Z,8.40
2019-05-02T00:22:54.640Z,8.40
2019-05-02T00:23:58.967Z,8.35
2019-05-02T00:24:54.591Z,8.33
2019-05-02T00:25:54.565Z,8.29
2019-05-02T00:26:56.079Z,8.21
2019-05-02T00:27:54.515Z,8.25
2019-05-02T00:28:54.491Z,8.29
2019-05-02T00:29:58.845Z,8.25
2019-05-02T00:30:54.439Z,8.28
2019-05-02T00:31:54.414Z,8.21
2019-05-02T00:32:58.306Z,8.21
2019-05-02T00:33:54.364Z,8.21
2019-05-02T00:34:54.341Z,8.11
2019-05-02T00:35:54.314Z,8.14
2019-05-02T00:36:54.289Z,8.10
2019-05-02T00:37:57.476Z,8.12
2019-05-02T00:38:54.238Z,8.17
2019-05-02T00:39:54.213Z,8.08
2019-05-02T00:40:57.330Z,8.03
2019-05-02T00:41:54.162Z,7.99
2019-05-02T00:42:58.271Z,7.97
2019-05-02T00:43:54.112Z,8.03
2019-05-02T00:44:54.088Z,8.08
2019-05-02T00:45:55.003Z,8.11
2019-05-02T00:46:54.035Z,8.17
2019-05-02T00:47:54.013Z,8.11
2019-05-02T00:48:59.076Z,8.15
2019-05-02T00:49:53.959Z,8.22
2019-05-02T00:50:53.934Z,8.29
2019-05-02T00:51:56.637Z,8.30
2019-05-02T00:52:53.884Z,8.17
2019-05-02T00:53:53.859Z,8.20
2019-05-02T00:54:54.976Z,8.14
2019-05-02T00:55:53.808Z,8.08
2019-05-02T00:56:53.782Z,8.14
2019-05-02T00:57:55.639Z,8.11
2019-05-02T00:58:53.729Z,7.96
2019-05-02T00:59:53.705Z,7.97
2019-05-02T01:00:54.851Z,7.96
2019-05-02T01:01:53.653Z,7.93
2019-05-02T01:02:53.629Z,7.97
2019-05-02T01:03:53.875Z,8.00
2019-05-02T01:04:53.576Z,7.92
2019-05-02T01:05:53.552Z,7.92
2019-05-02T01:06:53.526Z,7.97
2019-05-02T01:07:55.960Z,7.94
2019-05-02T01:08:53.475Z,7.92
2019-05-02T01:09:53.449Z,8.00
2019-05-02T01:10:56.966Z,7.93
2019-05-02T01:11:53.398Z,8.17
2019-05-02T01:12:53.376Z,8.12
2019-05-02T01:13:55.666Z,8.14
2019-05-02T01:14:54.075Z,8.12
2019-05-02T01:15:53.296Z,8.08
2019-05-02T01:16:54.309Z,8.02
2019-05-02T01:17:53.244Z,7.89
2019-05-02T01:18:53.219Z,7.79
2019-05-02T01:19:53.194Z,7.71
2019-05-02T01:20:53.168Z,7.69
2019-05-02T01:21:53.144Z,7.58
2019-05-02T01:22:53.673Z,7.59
2019-05-02T01:23:53.091Z,7.56
2019-05-02T01:24:53.066Z,7.59
2019-05-02T01:25:54.554Z,7.66
2019-05-02T01:26:53.014Z,7.60
2019-05-02T01:27:52.987Z,7.56
2019-05-02T01:28:54.287Z,7.60
2019-05-02T01:29:52.936Z,7.59
2019-05-02T01:30:53.661Z,7.75
2019-05-02T01:31:54.741Z,7.82
2019-05-02T01:32:52.859Z,7.84
2019-05-02T01:33:52.833Z,7.99
2019-05-02T01:34:54.564Z,8.00
2019-05-02T01:35:52.782Z,8.04
2019-05-02T01:36:52.756Z,8.10
2019-05-02T01:37:54.918Z,8.14
2019-05-02T01:38:52.704Z,7.97
2019-05-02T01:39:52.680Z,7.94
2019-05-02T01:40:54.519Z,7.84
2019-05-02T01:41:52.626Z,7.85
2019-05-02T01:42:52.601Z,7.77
2019-05-02T01:43:54.962Z,7.71
2019-05-02T01:44:52.550Z,7.69
2019-05-02T01:45:52.524Z,7.72
2019-05-02T01:46:53.958Z,7.67
2019-05-02T01:47:52.473Z,7.66
2019-05-02T01:48:52.448Z,7.56
2019-05-02T01:49:57.156Z,7.55
2019-05-02T01:50:52.395Z,7.47
2019-05-02T01:51:52.370Z,7.52
2019-05-02T01:52:53.774Z,7.47
2019-05-02T01:53:52.316Z,7.47
2019-05-02T01:54:52.293Z,7.56
2019-05-02T01:55:57.588Z,7.59
2019-05-02T01:56:52.241Z,7.62
2019-05-02T01:57:52.216Z,7.58
2019-05-02T01:58:53.020Z,7.60
2019-05-02T01:59:52.163Z,7.63
2019-05-02T02:00:52.139Z,7.56
2019-05-02T02:01:53.317Z,7.59
2019-05-02T02:02:52.086Z,7.78
2019-05-02T02:03:52.060Z,7.75
2019-05-02T02:04:56.476Z,7.67
2019-05-02T02:05:52.008Z,7.66
2019-05-02T02:06:51.982Z,7.59
2019-05-02T02:07:55.557Z,7.59
2019-05-02T02:08:51.931Z,7.55
2019-05-02T02:09:51.907Z,7.60
2019-05-02T02:10:56.134Z,7.45
2019-05-02T02:11:51.854Z,7.42
2019-05-02T02:13:03.551Z,7.41
2019-05-02T02:13:51.802Z,7.34
2019-05-02T02:14:53.639Z,7.35
2019-05-02T02:15:51.751Z,7.44
2019-05-02T02:16:51.725Z,7.40
2019-05-02T02:17:52.649Z,7.44
2019-05-02T02:18:51.676Z,7.50
2019-05-02T02:19:51.646Z,7.45
2019-05-02T02:20:51.621Z,7.66
2019-05-02T02:21:51.595Z,7.49
2019-05-02T02:22:51.569Z,7.45
2019-05-02T02:23:51.545Z,7.41
2019-05-02T02:24:51.519Z,7.45
2019-05-02T02:25:51.491Z,7.34
2019-05-02T02:26:51.465Z,7.24
2019-05-02T02:27:54.878Z,7.24
2019-05-02T02:28:51.414Z,7.31
2019-05-02T02:29:51.387Z,7.22
2019-05-02T02:30:51.362Z,7.24
2019-05-02T02:31:51.335Z,7.19
2019-05-02T02:32:51.311Z,7.08
2019-05-02T02:33:51.283Z,7.19
2019-05-02T02:34:51.263Z,7.27
2019-05-02T02:35:52.212Z,7.32
2019-05-02T02:36:51.207Z,7.32
2019-05-02T02:37:52.906Z,7.32
2019-05-02T02:38:51.915Z,7.26
2019-05-02T02:39:54.271Z,7.24
2019-05-02T02:40:51.105Z,7.27
2019-05-02T02:41:52.100Z,7.20
2019-05-02T02:42:51.051Z,7.19
2019-05-02T02:43:54.608Z,7.27
2019-05-02T02:44:50.999Z,7.24
2019-05-02T02:45:51.879Z,7.31
2019-05-02T02:46:50.946Z,7.31
2019-05-02T02:47:53.057Z,7.27
2019-05-02T02:48:50.895Z,7.32
2019-05-02T02:49:56.075Z,7.17
2019-05-02T02:50:50.843Z,7.22
2019-05-02T02:51:50.817Z,7.27
2019-05-02T02:52:50.791Z,7.22
2019-05-02T02:54:03.095Z,7.16
2019-05-02T02:54:50.737Z,7.08
2019-05-02T02:56:01.181Z,7.09
2019-05-02T02:56:50.686Z,7.19
2019-05-02T02:57:50.658Z,7.08
2019-05-02T02:58:50.634Z,7.02
2019-05-02T02:59:50.607Z,7.16
2019-05-02T03:00:52.083Z,7.13
2019-05-02T03:01:50.556Z,7.07
2019-05-02T03:02:50.616Z,7.05
2019-05-02T03:03:50.503Z,7.07
2019-05-02T03:04:50.479Z,7.04
2019-05-02T03:05:50.454Z,7.05
2019-05-02T03:06:51.175Z,7.05
2019-05-02T03:07:50.397Z,7.15
2019-05-02T03:08:50.373Z,7.07
2019-05-02T03:09:50.344Z,7.02
2019-05-02T03:10:50.318Z,7.16
2019-05-02T03:11:50.297Z,7.05
2019-05-02T03:12:50.267Z,7.01
2019-05-02T03:13:53.467Z,7.01
2019-05-02T03:14:50.218Z,7.01
2019-05-02T03:15:50.189Z,7.02
2019-05-02T03:16:50.160Z,7.02
2019-05-02T03:17:50.133Z,6.99
2019-05-02T03:18:50.115Z,6.99
2019-05-02T03:19:54.477Z,6.97
2019-05-02T03:20:50.056Z,6.90
2019-05-02T03:21:54.355Z,6.91
2019-05-02T03:22:50.002Z,6.95
2019-05-02T03:24:01.367Z,6.87
2019-05-02T03:24:49.950Z,6.91
2019-05-02T03:25:51.396Z,6.80
2019-05-02T03:26:55.434Z,6.79
2019-05-02T03:27:49.871Z,6.77
2019-05-02T03:28:57.644Z,6.90
2019-05-02T03:29:49.816Z,6.94
2019-05-02T03:30:49.797Z,6.80
2019-05-02T03:31:49.789Z,6.79
2019-05-02T03:33:02.673Z,6.81
2019-05-02T03:33:56.684Z,6.79
2019-05-02T03:34:53.757Z,6.89
2019-05-02T03:35:49.716Z,6.76
2019-05-02T03:36:49.633Z,6.80
2019-05-02T03:37:51.456Z,6.84
2019-05-02T03:38:49.581Z,6.77
2019-05-02T03:39:57.267Z,6.77
2019-05-02T03:40:49.528Z,6.84
2019-05-02T03:41:55.417Z,6.80
2019-05-02T03:42:49.477Z,6.73
2019-05-02T03:43:49.465Z,6.73
2019-05-02T03:44:56.912Z,6.79
2019-05-02T03:45:49.394Z,6.83
2019-05-02T03:46:54.192Z,6.81
2019-05-02T03:47:49.343Z,6.81
2019-05-02T03:48:49.317Z,6.79
2019-05-02T03:49:51.910Z,6.81
2019-05-02T03:50:49.262Z,6.77
2019-05-02T03:51:49.240Z,6.90
2019-05-02T03:52:49.211Z,6.91
2019-05-02T03:53:49.183Z,6.95
2019-05-02T03:54:52.154Z,6.84
2019-05-02T03:55:49.132Z,6.95
2019-05-02T03:56:51.112Z,6.79
2019-05-02T03:57:49.078Z,6.77
2019-05-02T03:58:56.342Z,6.79
2019-05-02T03:59:49.789Z,6.91
2019-05-02T04:01:00.534Z,6.90
2019-05-02T04:01:48.974Z,6.87
2019-05-02T04:02:59.066Z,6.76
2019-05-02T04:03:48.920Z,6.80
2019-05-02T04:04:54.497Z,6.84
2019-05-02T04:05:48.865Z,6.84
2019-05-02T04:06:54.966Z,6.79
2019-05-02T04:07:48.814Z,6.83
2019-05-02T04:08:58.689Z,6.95
2019-05-02T04:09:48.760Z,6.95
2019-05-02T04:10:52.529Z,6.99
2019-05-02T04:11:48.707Z,7.05
2019-05-02T04:12:53.122Z,6.99
2019-05-02T04:13:48.653Z,7.01
2019-05-02T04:14:55.142Z,6.99
2019-05-02T04:15:48.601Z,7.01
2019-05-02T04:16:54.662Z,7.17
2019-05-02T04:17:48.548Z,7.16
2019-05-02T04:18:55.811Z,6.99
2019-05-02T04:19:48.495Z,6.99
2019-05-02T04:20:49.730Z,7.04
2019-05-02T04:21:52.655Z,6.99
2019-05-02T04:22:49.108Z,7.13
2019-05-02T04:23:48.398Z,7.09
2019-05-02T04:24:54.392Z,7.19
2019-05-02T04:25:48.341Z,7.22
2019-05-02T04:26:53.790Z,7.22
2019-05-02T04:27:48.285Z,7.26
2019-05-02T04:28:51.715Z,7.31
2019-05-02T04:29:48.243Z,7.34
2019-05-02T04:30:51.138Z,7.29
2019-05-02T04:31:48.179Z,7.29
2019-05-02T04:32:49.795Z,7.29
2019-05-02T04:33:48.126Z,7.34
2019-05-02T04:34:54.956Z,7.31
2019-05-02T04:35:48.074Z,7.22
2019-05-02T04:36:59.891Z,7.27
2019-05-02T04:37:48.020Z,7.29
2019-05-02T04:38:52.163Z,7.20
2019-05-02T04:39:49.109Z,7.32
2019-05-02T04:40:49.571Z,7.29
2019-05-02T04:41:48.605Z,7.41
2019-05-02T04:42:53.451Z,7.27
2019-05-02T04:43:57.311Z,7.40
2019-05-02T04:45:09.451Z,7.40
2019-05-02T04:45:56.190Z,7.49
2019-05-02T04:46:48.890Z,7.45
2019-05-02T04:47:57.469Z,7.37
2019-05-02T04:48:49.717Z,7.47
2019-05-02T04:49:51.567Z,7.49
2019-05-02T04:50:48.314Z,7.45
2019-05-02T04:51:59.847Z,7.49
2019-05-02T04:52:53.637Z,7.53
2019-05-02T04:53:49.763Z,7.47
2019-05-02T04:54:48.837Z,7.47
2019-05-02T04:55:52.476Z,7.47
2019-05-02T04:56:53.114Z,7.52
2019-05-02T04:57:50.846Z,7.62
2019-05-02T04:58:49.316Z,7.58
2019-05-02T04:59:50.055Z,7.60
2019-05-02T05:00:53.615Z,7.63
2019-05-02T05:01:54.663Z,7.60
2019-05-02T05:02:48.460Z,7.62
2019-05-02T05:03:51.257Z,7.75
2019-05-02T05:04:49.452Z,7.67
2019-05-02T05:05:48.245Z,7.72
2019-05-02T05:06:55.945Z,7.78
2019-05-02T05:07:49.444Z,7.82
2019-05-02T05:08:48.271Z,7.87
2019-05-02T05:09:56.994Z,7.87
2019-05-02T05:10:47.966Z,7.90
2019-05-02T05:11:48.198Z,8.04
2019-05-02T05:12:48.001Z,8.08
2019-05-02T05:13:52.450Z,8.11
2019-05-02T05:14:47.478Z,8.10
2019-05-02T05:15:51.261Z,8.11
2019-05-02T05:16:51.661Z,8.14
2019-05-02T05:17:47.887Z,8.14
2019-05-02T05:18:49.501Z,8.15
2019-05-02T05:19:48.721Z,8.28
2019-05-02T05:20:53.002Z,8.21
2019-05-02T05:21:47.684Z,8.25
2019-05-02T05:22:47.906Z,8.33
2019-05-02T05:23:47.214Z,8.37
2019-05-02T05:24:47.699Z,8.47
2019-05-02T05:25:47.880Z,8.53
2019-05-02T05:26:47.673Z,8.71
2019-05-02T05:27:47.910Z,8.76
2019-05-02T05:28:47.678Z,8.86
2019-05-02T05:29:48.575Z,8.90
2019-05-02T05:30:51.889Z,8.90
2019-05-02T05:31:48.263Z,8.96
2019-05-02T05:32:47.881Z,9.04
2019-05-02T05:33:47.861Z,9.15
2019-05-02T05:34:47.788Z,9.27
2019-05-02T05:35:48.878Z,9.16
2019-05-02T05:36:48.159Z,9.34
2019-05-02T05:37:49.136Z,9.32
2019-05-02T05:38:47.836Z,9.38
2019-05-02T05:39:48.748Z,9.42
2019-05-02T05:40:47.900Z,9.31
2019-05-02T05:41:50.880Z,9.34
2019-05-02T05:42:48.111Z,9.32
2019-05-02T05:43:49.991Z,9.40
2019-05-02T05:44:48.372Z,9.48
2019-05-02T05:45:53.319Z,9.45
2019-05-02T05:46:48.913Z,9.50
2019-05-02T05:47:47.911Z,9.48
2019-05-02T05:48:47.637Z,9.57
2019-05-02T05:49:47.765Z,9.42
2019-05-02T05:50:47.796Z,9.56
2019-05-02T05:51:47.714Z,9.50
2019-05-02T05:52:47.287Z,9.58
2019-05-02T05:53:47.860Z,9.57
2019-05-02T05:54:47.402Z,9.60
2019-05-02T05:55:47.335Z,9.53
2019-05-02T05:56:48.017Z,9.58
2019-05-02T05:57:47.597Z,9.64
2019-05-02T05:58:50.513Z,9.67
2019-05-02T05:59:48.014Z,9.68
2019-05-02T06:00:53.611Z,9.76
2019-05-02T06:01:48.355Z,9.81
2019-05-02T06:02:53.895Z,10.03
2019-05-02T06:03:47.413Z,10.03
2019-05-02T06:04:47.727Z,10.07
2019-05-02T06:05:47.637Z,10.14
2019-05-02T06:06:47.856Z,10.25
2019-05-02T06:07:47.401Z,10.43
2019-05-02T06:08:49.160Z,10.40
2019-05-02T06:09:45.676Z,10.47
2019-05-02T06:10:45.672Z,10.51
2019-05-02T06:11:45.626Z,10.53
2019-05-02T06:12:45.603Z,10.51
2019-05-02T06:13:48.944Z,10.51
2019-05-02T06:14:46.497Z,10.65
2019-05-02T06:15:45.989Z,10.65
2019-05-02T06:16:46.787Z,10.77
2019-05-02T06:17:45.479Z,10.74
2019-05-02T06:18:45.455Z,10.84
2019-05-02T06:19:53.468Z,10.92
2019-05-02T06:20:45.407Z,10.98
2019-05-02T06:21:46.723Z,10.98
2019-05-02T06:22:45.357Z,11.03
2019-05-02T06:23:45.334Z,10.98
2019-05-02T06:24:46.205Z,10.98
2019-05-02T06:25:45.285Z,10.98
2019-05-02T06:26:49.757Z,11.07
2019-05-02T06:27:45.235Z,11.07
2019-05-02T06:28:45.211Z,11.10
2019-05-02T06:29:45.187Z,11.11
2019-05-02T06:30:45.164Z,11.24
2019-05-02T06:31:45.140Z,11.31
2019-05-02T06:32:45.115Z,11.36
2019-05-02T06:33:45.090Z,11.19
2019-05-02T06:34:47.561Z,11.24
2019-05-02T06:35:45.042Z,11.16
2019-05-02T06:36:45.018Z,11.17
2019-05-02T06:37:45.244Z,11.21
2019-05-02T06:38:44.970Z,11.31
2019-05-02T06:39:44.949Z,11.39
2019-05-02T06:40:46.611Z,11.49
2019-05-02T06:41:44.897Z,11.53
2019-05-02T06:42:44.873Z,11.53
2019-05-02T06:43:46.947Z,11.47
2019-05-02T06:44:44.826Z,11.54
2019-05-02T06:45:44.802Z,11.61
2019-05-02T06:46:44.778Z,11.62
2019-05-02T06:47:44.753Z,11.67
2019-05-02T06:48:48.254Z,11.77
2019-05-02T06:49:44.705Z,11.93
2019-05-02T06:50:44.682Z,11.96
2019-05-02T06:51:44.657Z,11.96
2019-05-02T06:52:44.634Z,12.02
2019-05-02T06:53:47.067Z,12.15
2019-05-02T06:54:44.585Z,12.26
2019-05-02T06:55:44.561Z,12.23
2019-05-02T06:56:48.004Z,12.24
2019-05-02T06:57:44.515Z,12.39
2019-05-02T06:58:44.489Z,12.56
2019-05-02T06:59:44.466Z,12.64
2019-05-02T07:00:56.466Z,12.71
2019-05-02T07:01:44.419Z,12.60
2019-05-02T07:02:44.395Z,12.69
2019-05-02T07:03:46.333Z,12.69
2019-05-02T07:04:44.353Z,12.78
2019-05-02T07:05:44.325Z,12.85
2019-05-02T07:06:57.182Z,12.96
2019-05-02T07:07:44.279Z,12.95
2019-05-02T07:08:44.261Z,12.99
2019-05-02T07:09:44.235Z,13.09
2019-05-02T07:10:45.146Z,13.14
2019-05-02T07:11:56.673Z,13.15
2019-05-02T07:12:46.192Z,13.17
2019-05-02T07:13:44.137Z,13.40
2019-05-02T07:14:45.786Z,13.55
2019-05-02T07:15:44.090Z,13.70
2019-05-02T07:16:44.067Z,13.63
2019-05-02T07:17:44.047Z,13.74
2019-05-02T07:18:47.473Z,13.84
2019-05-02T07:19:43.997Z,13.98
2019-05-02T07:20:43.974Z,13.96
2019-05-02T07:21:43.951Z,14.01
2019-05-02T07:22:45.566Z,14.12
2019-05-02T07:23:43.907Z,14.09
2019-05-02T07:24:43.884Z,14.07
2019-05-02T07:25:44.215Z,13.92
2019-05-02T07:26:43.836Z,14.19
2019-05-02T07:27:43.814Z,14.14
2019-05-02T07:28:45.561Z,14.21
2019-05-02T07:29:43.769Z,14.37
2019-05-02T07:30:43.747Z,14.32
2019-05-02T07:31:47.741Z,14.39
2019-05-02T07:32:43.700Z,14.42
2019-05-02T07:33:43.677Z,14.46
2019-05-02T07:34:44.269Z,14.44
2019-05-02T07:35:43.632Z,14.57
2019-05-02T07:36:43.609Z,14.61
2019-05-02T07:37:44.098Z,14.74
2019-05-02T07:38:43.564Z,14.88
2019-05-02T07:39:43.541Z,15.02
2019-05-02T07:40:43.519Z,15.13
2019-05-02T07:41:43.496Z,15.24
2019-05-02T07:42:43.474Z,15.26
2019-05-02T07:43:43.452Z,15.38
2019-05-02T07:44:43.429Z,15.20
2019-05-02T07:45:45.309Z,15.27
2019-05-02T07:46:51.660Z,15.33
2019-05-02T07:47:43.364Z,15.45
2019-05-02T07:48:43.700Z,15.57
2019-05-02T07:49:43.319Z,15.46
2019-05-02T07:50:46.498Z,15.51
2019-05-02T07:51:43.276Z,15.46
2019-05-02T07:52:43.253Z,15.02
2019-05-02T07:53:44.595Z,14.94
2019-05-02T07:54:43.209Z,15.01
2019-05-02T07:55:43.187Z,15.23
2019-05-02T07:56:43.166Z,15.33
2019-05-02T07:57:43.143Z,15.38
2019-05-02T07:58:46.924Z,15.24
2019-05-02T07:59:43.101Z,15.15
2019-05-02T08:00:43.078Z,15.24
2019-05-02T08:01:44.916Z,15.26
2019-05-02T08:02:43.034Z,15.30
2019-05-02T08:03:43.012Z,15.43
2019-05-02T08:04:44.138Z,15.46
2019-05-02T08:05:42.968Z,15.59
2019-05-02T08:06:44.687Z,15.68
2019-05-02T08:07:42.925Z,15.81
2019-05-02T08:08:42.904Z,15.64
2019-05-02T08:09:44.087Z,15.57
2019-05-02T08:10:42.860Z,15.38
2019-05-02T08:11:42.838Z,15.33
2019-05-02T08:12:42.818Z,15.31
2019-05-02T08:13:42.795Z,15.20
2019-05-02T08:14:42.774Z,15.21
2019-05-02T08:15:45.569Z,15.35
2019-05-02T08:16:42.730Z,15.45
2019-05-02T08:17:42.708Z,15.54
2019-05-02T08:18:42.688Z,15.76
2019-05-02T08:19:43.295Z,16.01
2019-05-02T08:20:42.644Z,16.03
2019-05-02T08:21:42.622Z,16.22
2019-05-02T08:22:43.987Z,16.35
2019-05-02T08:23:42.579Z,16.34
2019-05-02T08:24:42.558Z,16.37
2019-05-02T08:25:45.383Z,16.35
2019-05-02T08:26:43.265Z,16.53
2019-05-02T08:27:42.495Z,16.65
2019-05-02T08:28:42.480Z,16.56
2019-05-02T08:29:42.451Z,16.33
2019-05-02T08:30:42.433Z,16.53
2019-05-02T08:31:42.408Z,16.62
2019-05-02T08:32:42.388Z,16.65
2019-05-02T08:33:42.366Z,16.31
2019-05-02T08:34:46.272Z,16.44
2019-05-02T08:35:42.325Z,16.59
2019-05-02T08:36:42.306Z,16.56
2019-05-02T08:37:43.077Z,16.56
2019-05-02T08:38:42.261Z,16.71
2019-05-02T08:39:42.241Z,16.90
2019-05-02T08:40:47.591Z,17.08
2019-05-02T08:41:42.199Z,17.08
2019-05-02T08:42:42.178Z,17.33
2019-05-02T08:43:44.935Z,17.29
2019-05-02T08:44:50.723Z,17.33
2019-05-02T08:45:42.116Z,17.28
2019-05-02T08:46:46.218Z,17.23
2019-05-02T08:47:42.081Z,17.22
2019-05-02T08:48:43.755Z,17.38
2019-05-02T08:49:42.575Z,17.20
2019-05-02T08:50:42.012Z,17.35
2019-05-02T08:51:41.992Z,17.32
2019-05-02T08:52:42.764Z,17.32
2019-05-02T08:53:42.701Z,17.35
2019-05-02T08:54:41.930Z,17.32
2019-05-02T08:55:45.336Z,17.36
2019-05-02T08:56:41.891Z,17.46
2019-05-02T08:57:41.869Z,17.47
2019-05-02T08:58:44.866Z,17.18
2019-05-02T08:59:41.827Z,17.20
2019-05-02T09:00:41.808Z,17.17
2019-05-02T09:01:44.694Z,17.14
2019-05-02T09:02:42.193Z,17.20
2019-05-02T09:03:54.847Z,17.33
2019-05-02T09:04:41.728Z,17.50
2019-05-02T09:05:46.098Z,17.51
2019-05-02T09:06:41.686Z,17.14
2019-05-02T09:07:43.014Z,16.95
2019-05-02T09:08:41.646Z,17.03
2019-05-02T09:09:43.878Z,17.07
2019-05-02T09:10:42.079Z,17.14
2019-05-02T09:11:43.776Z,17.15
2019-05-02T09:12:45.336Z,17.47
2019-05-02T09:13:42.190Z,17.51
2019-05-02T09:14:42.590Z,17.64
2019-05-02T09:15:49.739Z,17.54
2019-05-02T09:16:42.738Z,17.35
2019-05-02T09:17:44.624Z,17.08
2019-05-02T09:18:50.653Z,17.18
2019-05-02T09:19:42.950Z,17.25
2019-05-02T09:20:42.359Z,17.38
2019-05-02T09:21:42.898Z,17.35
2019-05-02T09:22:41.889Z,17.62
2019-05-02T09:23:43.898Z,17.73
2019-05-02T09:24:43.059Z,17.84
2019-05-02T09:25:43.017Z,17.70
2019-05-02T09:26:42.587Z,17.63
2019-05-02T09:27:42.060Z,17.55
2019-05-02T09:28:42.253Z,17.23
2019-05-02T09:29:44.420Z,17.40
2019-05-02T09:30:41.905Z,17.57
2019-05-02T09:31:44.185Z,17.70
2019-05-02T09:32:41.920Z,17.36
2019-05-02T09:33:42.378Z,17.46
2019-05-02T09:34:42.401Z,17.48
2019-05-02T09:35:42.164Z,17.73
2019-05-02T09:36:41.854Z,17.97
2019-05-02T09:37:41.987Z,17.89
2019-05-02T09:38:42.492Z,18.03
2019-05-02T09:39:41.521Z,18.07
2019-05-02T09:40:42.594Z,18.07
2019-05-02T09:41:41.920Z,18.17
2019-05-02T09:42:43.149Z,18.28
2019-05-02T09:43:42.621Z,18.09
2019-05-02T09:44:42.560Z,17.91
2019-05-02T09:45:43.223Z,17.95
2019-05-02T09:46:42.744Z,18.25
2019-05-02T09:47:55.382Z,18.46
2019-05-02T09:48:42.729Z,18.28
2019-05-02T09:49:41.735Z,17.82
2019-05-02T09:50:42.192Z,18.04
2019-05-02T09:51:42.327Z,18.24
2019-05-02T09:52:41.676Z,18.39
2019-05-02T09:53:43.011Z,18.37
2019-05-02T09:54:42.457Z,18.42
2019-05-02T09:55:42.023Z,18.24
2019-05-02T09:56:40.680Z,18.27
2019-05-02T09:57:42.628Z,18.27
2019-05-02T09:58:42.029Z,18.40
2019-05-02T09:59:44.896Z,18.22
2019-05-02T10:00:41.852Z,18.39
2019-05-02T10:01:42.169Z,18.34
2019-05-02T10:02:41.886Z,18.04
2019-05-02T10:03:42.301Z,18.21
2019-05-02T10:04:43.491Z,17.84
2019-05-02T10:05:40.508Z,17.91
2019-05-02T10:06:42.377Z,17.88
2019-05-02T10:07:41.902Z,17.87
2019-05-02T10:08:43.532Z,18.07
2019-05-02T10:09:42.332Z,18.33
2019-05-02T10:10:44.278Z,18.42
2019-05-02T10:11:41.800Z,18.50
2019-05-02T10:12:42.595Z,18.57
2019-05-02T10:13:42.350Z,18.55
2019-05-02T10:14:42.124Z,18.65
2019-05-02T10:15:42.129Z,18.86
2019-05-02T10:16:42.495Z,18.90
2019-05-02T10:17:44.684Z,18.91
2019-05-02T10:18:40.264Z,18.97
2019-05-02T10:19:41.185Z,19.11
2019-05-02T10:20:41.953Z,19.05
2019-05-02T10:21:42.095Z,18.80
2019-05-02T10:22:41.835Z,18.94
2019-05-02T10:23:42.606Z,18.84
2019-05-02T10:24:40.151Z,18.95
2019-05-02T10:25:46.602Z,18.87
2019-05-02T10:26:41.935Z,18.74
2019-05-02T10:27:46.075Z,18.74
2019-05-02T10:28:41.743Z,18.77
2019-05-02T10:29:41.876Z,18.95
2019-05-02T10:30:40.039Z,18.76
2019-05-02T10:31:42.068Z,18.94
2019-05-02T10:32:40.003Z,18.90
2019-05-02T10:33:41.934Z,19.10
2019-05-02T10:34:42.118Z,18.74
2019-05-02T10:35:41.490Z,18.64
2019-05-02T10:36:43.220Z,18.64
2019-05-02T10:37:39.912Z,18.74
2019-05-02T10:38:39.893Z,18.83
2019-05-02T10:39:39.879Z,18.42
2019-05-02T10:40:39.857Z,18.19
2019-05-02T10:41:41.852Z,18.13
2019-05-02T10:42:41.863Z,18.49
2019-05-02T10:43:39.803Z,18.58
2019-05-02T10:44:39.784Z,18.65
2019-05-02T10:45:39.765Z,18.87
2019-05-02T10:46:41.541Z,18.87
2019-05-02T10:47:39.729Z,19.20
2019-05-02T10:48:39.717Z,19.17
2019-05-02T10:49:39.693Z,18.74
2019-05-02T10:50:39.676Z,18.82
2019-05-02T10:51:41.803Z,18.74
2019-05-02T10:52:39.639Z,18.94
2019-05-02T10:53:39.622Z,19.06
2019-05-02T10:54:39.604Z,19.21
2019-05-02T10:55:39.585Z,19.02
2019-05-02T10:56:39.567Z,18.92
2019-05-02T10:57:39.548Z,19.05
2019-05-02T10:58:39.531Z,18.95
2019-05-02T10:59:39.512Z,18.83
2019-05-02T11:00:41.874Z,18.77
2019-05-02T11:01:41.626Z,18.61
2019-05-02T11:02:39.458Z,18.62
2019-05-02T11:03:43.765Z,19.11
2019-05-02T11:04:39.423Z,19.17
2019-05-02T11:05:39.405Z,19.33
2019-05-02T11:06:42.692Z,19.38
2019-05-02T11:07:39.369Z,19.53
2019-05-02T11:08:42.082Z,19.54
2019-05-02T11:09:39.333Z,19.28
2019-05-02T11:10:39.315Z,18.97
2019-05-02T11:11:39.319Z,18.91
2019-05-02T11:12:46.103Z,19.13
2019-05-02T11:13:39.261Z,19.17
2019-05-02T11:14:39.244Z,19.08
2019-05-02T11:15:39.227Z,19.05
2019-05-02T11:16:39.209Z,19.08
2019-05-02T11:17:39.190Z,18.83
2019-05-02T11:18:42.491Z,18.91
2019-05-02T11:19:39.156Z,19.05
2019-05-02T11:20:39.137Z,19.10
2019-05-02T11:21:46.726Z,19.18
2019-05-02T11:22:39.103Z,19.14
2019-05-02T11:23:39.176Z,19.20
2019-05-02T11:24:39.065Z,19.10
2019-05-02T11:25:39.046Z,19.33
2019-05-02T11:26:39.029Z,19.42
2019-05-02T11:27:39.010Z,19.51
2019-05-02T11:28:38.993Z,19.69
2019-05-02T11:29:38.974Z,19.42
2019-05-02T11:30:38.957Z,19.43
2019-05-02T11:31:38.940Z,19.42
2019-05-02T11:32:38.922Z,19.57
2019-05-02T11:33:38.902Z,19.48
2019-05-02T11:34:38.885Z,19.36
2019-05-02T11:35:41.861Z,19.17
2019-05-02T11:36:38.849Z,19.18
2019-05-02T11:37:38.831Z,19.06
2019-05-02T11:38:39.852Z,19.10
2019-05-02T11:39:48.550Z,19.24
2019-05-02T11:40:38.777Z,19.20
2019-05-02T11:41:38.758Z,19.31
2019-05-02T11:42:38.741Z,19.55
2019-05-02T11:43:42.383Z,19.79
2019-05-02T11:44:38.706Z,19.57
2019-05-02T11:45:38.686Z,19.55
2019-05-02T11:46:42.971Z,19.73
2019-05-02T11:47:38.651Z,19.73
2019-05-02T11:48:38.633Z,19.60
2019-05-02T11:49:38.615Z,19.29
2019-05-02T11:50:38.597Z,19.11
2019-05-02T11:51:38.580Z,19.14
2019-05-02T11:52:38.562Z,19.11
2019-05-02T11:53:38.546Z,19.14
2019-05-02T11:54:39.322Z,19.14
2019-05-02T11:55:41.290Z,18.95
2019-05-02T11:56:41.151Z,18.95
2019-05-02T11:57:38.473Z,19.15
2019-05-02T11:58:40.815Z,19.08
2019-05-02T11:59:38.438Z,19.05
2019-05-02T12:00:39.761Z,19.02
2019-05-02T12:01:39.811Z,19.28
2019-05-02T12:02:38.385Z,18.95
2019-05-02T12:03:38.373Z,18.77
2019-05-02T12:04:38.350Z,18.84
2019-05-02T12:05:39.377Z,18.98
2019-05-02T12:06:38.316Z,19.10
2019-05-02T12:07:38.299Z,19.18
2019-05-02T12:08:39.397Z,19.11
2019-05-02T12:09:38.260Z,19.02
2019-05-02T12:10:38.246Z,18.94
2019-05-02T12:11:38.226Z,18.72
2019-05-02T12:12:38.207Z,18.64
2019-05-02T12:13:38.189Z,18.74
2019-05-02T12:14:38.171Z,18.77
2019-05-02T12:15:38.153Z,18.80
2019-05-02T12:16:38.135Z,18.83
2019-05-02T12:17:38.116Z,18.74
2019-05-02T12:18:38.098Z,18.58
2019-05-02T12:19:38.079Z,18.36
2019-05-02T12:20:38.061Z,18.06
2019-05-02T12:21:39.288Z,17.88
2019-05-02T12:22:38.024Z,17.94
2019-05-02T12:23:38.006Z,17.48
2019-05-02T12:24:40.950Z,17.08
2019-05-02T12:25:37.966Z,16.83
2019-05-02T12:26:37.949Z,16.70
2019-05-02T12:27:39.433Z,16.53
2019-05-02T12:28:37.910Z,16.48
2019-05-02T12:29:37.891Z,16.41
2019-05-02T12:30:37.974Z,16.56
2019-05-02T12:31:37.852Z,16.38
2019-05-02T12:32:37.832Z,16.44
2019-05-02T12:33:37.812Z,16.34
2019-05-02T12:34:37.791Z,16.11
2019-05-02T12:35:37.772Z,16.18
2019-05-02T12:36:37.752Z,16.23
2019-05-02T12:37:37.734Z,16.33
2019-05-02T12:38:37.711Z,16.35
2019-05-02T12:39:37.691Z,16.34
2019-05-02T12:40:37.672Z,16.26
2019-05-02T12:41:37.650Z,16.27
2019-05-02T12:42:37.631Z,16.22
2019-05-02T12:43:37.609Z,16.27
2019-05-02T12:44:37.590Z,16.34
2019-05-02T12:45:37.570Z,16.37
2019-05-02T12:46:37.548Z,16.37
2019-05-02T12:47:37.527Z,16.42
2019-05-02T12:48:37.510Z,16.59
2019-05-02T12:49:37.486Z,16.56
2019-05-02T12:50:37.465Z,16.45
2019-05-02T12:51:37.444Z,16.04
2019-05-02T12:52:37.424Z,15.93
2019-05-02T12:53:37.402Z,15.96
2019-05-02T12:54:37.382Z,15.97
2019-05-02T12:55:37.362Z,16.06
2019-05-02T12:56:37.341Z,16.15
2019-05-02T12:57:37.320Z,16.18
2019-05-02T12:58:37.305Z,16.20
2019-05-02T12:59:37.284Z,16.04
2019-05-02T13:00:37.259Z,16.04
2019-05-02T13:01:37.243Z,16.00
2019-05-02T13:02:37.218Z,16.00
2019-05-02T13:03:37.199Z,15.93
2019-05-02T13:04:37.200Z,15.88